Time;durP1;ratioP1;P1;durP2;ratioP2;P2;SDS_P1;SDS_P2;PMS_P1;PMS_P2;Temp;Humidity;BMP_temperature;BMP_pressure;BME280_temperature;BME280_humidity;BME280_pressure;Samples;Min_cycle;Max_cycle;Signal;HPM_P1;HPM_P2
2022/03/05 00:01:20;;;;;;;3.08;0.80;;;;;;;;;;5103324;28;20412;-76
2022/03/05 00:03:46;;;;;;;0.63;0.60;;;;;;;;;;5103223;28;20024;-76
2022/03/05 00:06:11;;;;;;;1.83;0.90;;;;;;;;;;5101734;28;20028;-76
2022/03/05 00:08:37;;;;;;;1.50;0.70;;;;;;;;;;5103366;28;20020;-76
2022/03/05 00:11:02;;;;;;;3.58;0.75;;;;;;;;;;5103319;28;20369;-75
2022/03/05 00:13:27;;;;;;;1.52;0.70;;;;;;;;;;5103242;28;20032;-76
2022/03/05 00:15:53;;;;;;;1.67;1.33;;;;;;;;;;5103343;28;20028;-77
2022/03/05 00:18:19;;;;;;;1.38;0.80;;;;;;;;;;5101615;28;20031;-76
2022/03/05 00:20:45;;;;;;;2.50;0.95;;;;;;;;;;5103234;28;20481;-75
2022/03/05 00:23:11;;;;;;;2.17;1.15;;;;;;;;;;5103033;28;20031;-76
2022/03/05 00:25:37;;;;;;;4.72;1.20;;;;;;;;;;5103010;28;20052;-77
2022/03/05 00:28:03;;;;;;;8.88;1.38;;;;;;;;;;5101714;28;20020;-75
2022/03/05 00:30:28;;;;;;;4.60;1.10;;;;;;;;;;5102824;28;20076;-76
2022/03/05 00:32:54;;;;;;;1.52;0.70;;;;;;;;;;5103064;28;20048;-76
2022/03/05 00:35:19;;;;;;;1.42;0.88;;;;;;;;;;5102633;28;20040;-74
2022/03/05 00:37:45;;;;;;;4.22;1.23;;;;;;;;;;5103021;28;20021;-76
2022/03/05 00:40:10;;;;;;;3.72;0.93;;;;;;;;;;5101513;28;20020;-76
2022/03/05 00:42:36;;;;;;;7.15;1.05;;;;;;;;;;5103213;28;20024;-76
2022/03/05 00:45:05;;;;;;;3.10;1.20;;;;;;;;;;5101333;28;20060;-76
2022/03/05 00:47:31;;;;;;;2.35;1.00;;;;;;;;;;5102843;28;20023;-76
2022/03/05 00:49:56;;;;;;;4.43;1.00;;;;;;;;;;5101615;28;20024;-75
2022/03/05 00:52:22;;;;;;;1.35;0.73;;;;;;;;;;5101743;28;20035;-76
2022/03/05 00:54:47;;;;;;;5.07;1.40;;;;;;;;;;5102753;28;20056;-76
2022/03/05 00:57:13;;;;;;;3.72;1.05;;;;;;;;;;5102748;28;20020;-76
2022/03/05 00:59:39;;;;;;;2.45;0.90;;;;;;;;;;5101218;28;20111;-76
2022/03/05 01:02:05;;;;;;;2.55;0.95;;;;;;;;;;5101624;28;20021;-75
2022/03/05 01:04:30;;;;;;;4.15;1.02;;;;;;;;;;5102134;28;20036;-75
2022/03/05 01:06:56;;;;;;;3.20;1.00;;;;;;;;;;5102666;28;20046;-76
2022/03/05 01:09:21;;;;;;;4.07;1.15;;;;;;;;;;5101292;28;20077;-76
2022/03/05 01:11:46;;;;;;;5.22;1.30;;;;;;;;;;5105705;28;20482;-76
2022/03/05 01:14:12;;;;;;;3.10;0.98;;;;;;;;;;5104715;28;20035;-75
2022/03/05 01:16:37;;;;;;;3.25;0.90;;;;;;;;;;5105031;28;20109;-75
2022/03/05 01:19:03;;;;;;;5.53;1.05;;;;;;;;;;5106677;28;20028;-75
2022/03/05 01:21:28;;;;;;;2.58;0.90;;;;;;;;;;5106614;28;20087;-75
2022/03/05 01:23:55;;;;;;;2.13;0.95;;;;;;;;;;5104724;28;20028;-76
2022/03/05 01:26:21;;;;;;;2.70;0.95;;;;;;;;;;5106250;28;20069;-76
2022/03/05 01:28:46;;;;;;;1.85;0.75;;;;;;;;;;5106274;28;20028;-76
2022/03/05 01:31:12;;;;;;;3.88;0.88;;;;;;;;;;5106382;28;20032;-75
2022/03/05 01:33:37;;;;;;;2.05;0.90;;;;;;;;;;5105766;28;20020;-75
2022/03/05 01:36:02;;;;;;;1.27;0.70;;;;;;;;;;5104646;28;20082;-76
2022/03/05 01:38:28;;;;;;;2.17;1.05;;;;;;;;;;5106259;28;20058;-75
2022/03/05 01:40:53;;;;;;;1.95;0.70;;;;;;;;;;5106131;28;20054;-75
2022/03/05 01:43:19;;;;;;;1.73;0.80;;;;;;;;;;5105826;28;20020;-75
2022/03/05 01:45:44;;;;;;;5.85;0.90;;;;;;;;;;5104495;28;20065;-75
2022/03/05 01:48:09;;;;;;;1.17;0.68;;;;;;;;;;5106066;28;20061;-75
2022/03/05 01:50:38;;;;;;;4.22;0.80;;;;;;;;;;5105024;28;20106;-75
2022/03/05 01:53:04;;;;;;;2.33;0.70;;;;;;;;;;5105856;28;20092;-76
2022/03/05 01:55:29;;;;;;;2.38;0.68;;;;;;;;;;5104012;28;20052;-76
2022/03/05 01:57:55;;;;;;;2.70;0.73;;;;;;;;;;5105892;28;20028;-76
2022/03/05 02:00:21;;;;;;;3.00;0.75;;;;;;;;;;5105607;28;20027;-75
2022/03/05 02:02:46;;;;;;;2.47;0.82;;;;;;;;;;5105727;28;20024;-76
2022/03/05 02:05:13;;;;;;;4.35;0.93;;;;;;;;;;5105426;28;20075;-76
2022/03/05 02:07:39;;;;;;;3.55;1.00;;;;;;;;;;5105695;28;20101;-76
2022/03/05 02:10:08;;;;;;;1.50;0.70;;;;;;;;;;5105736;28;20680;-76
2022/03/05 02:12:35;;;;;;;1.20;0.63;;;;;;;;;;5105526;28;20042;-76
2022/03/05 02:15:00;;;;;;;2.13;0.85;;;;;;;;;;5103673;28;20036;-75
2022/03/05 02:17:27;;;;;;;1.33;0.60;;;;;;;;;;5105531;28;20043;-77
2022/03/05 02:19:57;;;;;;;1.67;0.80;;;;;;;;;;5105041;28;20064;-76
2022/03/05 02:22:22;;;;;;;1.92;0.80;;;;;;;;;;5104652;28;20024;-76
2022/03/05 02:24:51;;;;;;;0.93;0.50;;;;;;;;;;5105128;28;20038;-76
2022/03/05 02:27:17;;;;;;;1.38;0.85;;;;;;;;;;5105005;28;20072;-77
2022/03/05 02:29:42;;;;;;;1.20;0.50;;;;;;;;;;5104943;28;20103;-77
2022/03/05 02:32:08;;;;;;;0.73;0.60;;;;;;;;;;5104893;28;20028;-76
2022/03/05 02:34:33;;;;;;;0.70;0.60;;;;;;;;;;5104903;28;20047;-76
2022/03/05 02:36:59;;;;;;;1.83;0.77;;;;;;;;;;5104935;28;20047;-76
2022/03/05 02:39:25;;;;;;;2.00;0.60;;;;;;;;;;5104847;28;20031;-76
2022/03/05 02:41:55;;;;;;;2.40;0.73;;;;;;;;;;5103357;28;20123;-77
2022/03/05 02:44:21;;;;;;;2.63;0.90;;;;;;;;;;5104694;28;20024;-76
2022/03/05 02:46:46;;;;;;;7.50;0.98;;;;;;;;;;5104731;28;20020;-77
2022/03/05 02:49:12;;;;;;;3.03;1.08;;;;;;;;;;5104495;28;20031;-76
2022/03/05 02:51:38;;;;;;;1.63;0.80;;;;;;;;;;5104722;28;20422;-77
2022/03/05 02:54:04;;;;;;;2.83;0.82;;;;;;;;;;5104639;28;20537;-76
2022/03/05 02:56:30;;;;;;;1.55;0.65;;;;;;;;;;5104815;28;20036;-75
2022/03/05 02:58:56;;;;;;;2.58;0.70;;;;;;;;;;5102962;28;20020;-76
2022/03/05 03:01:21;;;;;;;1.83;0.70;;;;;;;;;;5104879;28;20040;-76
2022/03/05 03:03:47;;;;;;;2.55;0.90;;;;;;;;;;5104258;28;20035;-76
2022/03/05 03:06:12;;;;;;;0.68;0.57;;;;;;;;;;5104436;28;20024;-76
2022/03/05 03:08:38;;;;;;;3.60;0.73;;;;;;;;;;5104285;28;20072;-76
2022/03/05 03:11:03;;;;;;;2.67;0.80;;;;;;;;;;5104388;28;20044;-76
2022/03/05 03:13:28;;;;;;;1.02;0.60;;;;;;;;;;5103897;28;20023;-77
2022/03/05 03:15:54;;;;;;;2.03;1.02;;;;;;;;;;5104352;28;20063;-76
2022/03/05 03:18:19;;;;;;;1.65;0.55;;;;;;;;;;5104335;28;20032;-77
2022/03/05 03:20:45;;;;;;;3.88;0.70;;;;;;;;;;5104047;28;20024;-77
2022/03/05 03:23:11;;;;;;;1.63;0.70;;;;;;;;;;5104097;28;20107;-77
2022/03/05 03:25:39;;;;;;;1.42;0.70;;;;;;;;;;5104027;28;20083;-77
2022/03/05 03:28:06;;;;;;;1.55;0.93;;;;;;;;;;5103946;28;20028;-77
2022/03/05 03:30:31;;;;;;;2.25;0.60;;;;;;;;;;5103827;28;20046;-77
2022/03/05 03:32:57;;;;;;;0.60;0.60;;;;;;;;;;5103869;28;20028;-76
2022/03/05 03:35:23;;;;;;;0.85;0.60;;;;;;;;;;5102357;28;20377;-76
2022/03/05 03:37:48;;;;;;;1.40;0.50;;;;;;;;;;5102336;28;20115;-76
2022/03/05 03:40:16;;;;;;;1.10;0.73;;;;;;;;;;5103881;28;20035;-77
2022/03/05 03:42:43;;;;;;;1.20;0.70;;;;;;;;;;5102460;28;20016;-76
2022/03/05 03:45:10;;;;;;;0.43;0.43;;;;;;;;;;5103611;28;20020;-77
2022/03/05 03:47:37;;;;;;;2.03;0.52;;;;;;;;;;5103484;28;20031;-76
2022/03/05 03:50:05;;;;;;;0.60;0.52;;;;;;;;;;5103535;28;20066;-77
2022/03/05 03:52:31;;;;;;;0.88;0.52;;;;;;;;;;5103731;28;20429;-76
2022/03/05 03:54:56;;;;;;;1.10;0.70;;;;;;;;;;5103383;28;20039;-76
2022/03/05 03:57:22;;;;;;;1.30;0.65;;;;;;;;;;5103659;28;20117;-76
2022/03/05 03:59:51;;;;;;;1.48;0.80;;;;;;;;;;5103108;28;20054;-76
2022/03/05 04:02:17;;;;;;;2.47;0.63;;;;;;;;;;5102307;28;20091;-76
2022/03/05 04:04:42;;;;;;;1.13;0.73;;;;;;;;;;5102971;28;20059;-77
2022/03/05 04:09:52;;;;;;;0.88;0.50;;;;;;;;;;5103075;28;20039;-76
2022/03/05 04:12:17;;;;;;;1.20;0.70;;;;;;;;;;5102173;28;20426;-77
2022/03/05 04:14:42;;;;;;;0.80;0.45;;;;;;;;;;5103386;28;20059;-77
2022/03/05 04:17:08;;;;;;;0.60;0.47;;;;;;;;;;5102991;28;20383;-77
2022/03/05 04:19:33;;;;;;;1.20;0.75;;;;;;;;;;5103278;28;20020;-76
2022/03/05 04:21:59;;;;;;;0.88;0.40;;;;;;;;;;5103382;28;20069;-76
2022/03/05 04:24:24;;;;;;;1.25;0.50;;;;;;;;;;5102915;28;20020;-77
2022/03/05 04:26:49;;;;;;;1.02;0.52;;;;;;;;;;5102598;28;20402;-76
2022/03/05 04:29:15;;;;;;;3.22;0.52;;;;;;;;;;5103042;28;20102;-76
2022/03/05 04:31:40;;;;;;;0.70;0.60;;;;;;;;;;5101490;28;20032;-76
2022/03/05 04:34:06;;;;;;;1.27;0.50;;;;;;;;;;5102968;28;20031;-77
2022/03/05 04:36:31;;;;;;;0.65;0.50;;;;;;;;;;5103064;28;20072;-77
2022/03/05 04:38:57;;;;;;;0.50;0.47;;;;;;;;;;5103024;28;20013;-76
2022/03/05 04:41:22;;;;;;;0.65;0.50;;;;;;;;;;5103237;28;20031;-75
2022/03/05 04:43:48;;;;;;;0.68;0.55;;;;;;;;;;5102902;28;20027;-76
2022/03/05 04:46:15;;;;;;;2.60;0.60;;;;;;;;;;5105263;28;20040;-76
2022/03/05 04:48:40;;;;;;;1.50;0.40;;;;;;;;;;5106871;28;20036;-76
2022/03/05 04:51:06;;;;;;;0.57;0.40;;;;;;;;;;5107326;28;20074;-77
2022/03/05 04:53:31;;;;;;;2.50;0.60;;;;;;;;;;5106871;28;20032;-77
2022/03/05 04:55:56;;;;;;;1.85;0.70;;;;;;;;;;5106956;28;20066;-77
2022/03/05 04:58:22;;;;;;;0.50;0.50;;;;;;;;;;5106947;28;20031;-76
2022/03/05 05:00:47;;;;;;;0.35;0.35;;;;;;;;;;5105555;28;20035;-77
2022/03/05 05:03:13;;;;;;;2.28;0.30;;;;;;;;;;5106628;28;20027;-76
2022/03/05 05:05:38;;;;;;;1.60;0.47;;;;;;;;;;5106798;28;20134;-77
2022/03/05 05:08:04;;;;;;;0.70;0.63;;;;;;;;;;5105244;28;20486;-76
2022/03/05 05:10:30;;;;;;;1.17;0.40;;;;;;;;;;5105273;28;20028;-76
2022/03/05 05:12:55;;;;;;;0.75;0.50;;;;;;;;;;5106651;28;20024;-76
2022/03/05 05:15:20;;;;;;;0.40;0.40;;;;;;;;;;5106661;28;20036;-76
2022/03/05 05:17:46;;;;;;;0.75;0.50;;;;;;;;;;5105122;28;20034;-76
2022/03/05 05:20:11;;;;;;;0.50;0.40;;;;;;;;;;5105965;28;20028;-77
2022/03/05 05:22:37;;;;;;;2.53;0.60;;;;;;;;;;5104982;28;20024;-76
2022/03/05 05:25:03;;;;;;;0.95;0.60;;;;;;;;;;5104777;28;20035;-76
2022/03/05 05:27:29;;;;;;;2.30;0.73;;;;;;;;;;5104808;28;20044;-77
2022/03/05 05:29:54;;;;;;;3.35;0.43;;;;;;;;;;5106141;28;20050;-77
2022/03/05 05:32:20;;;;;;;0.50;0.40;;;;;;;;;;5104516;28;20389;-76
2022/03/05 05:34:45;;;;;;;0.60;0.50;;;;;;;;;;5106103;28;20025;-76
2022/03/05 05:37:11;;;;;;;1.00;0.43;;;;;;;;;;5106437;28;20398;-77
2022/03/05 05:39:36;;;;;;;0.55;0.40;;;;;;;;;;5106140;28;20046;-76
2022/03/05 05:42:03;;;;;;;1.65;0.57;;;;;;;;;;5104858;28;20095;-77
2022/03/05 05:44:28;;;;;;;5.45;1.77;;;;;;;;;;5105880;28;20050;-76
2022/03/05 05:46:53;;;;;;;2.65;1.65;;;;;;;;;;5106178;28;20024;-77
2022/03/05 05:49:19;;;;;;;3.67;2.00;;;;;;;;;;5105884;28;20103;-76
2022/03/05 05:51:44;;;;;;;3.13;1.60;;;;;;;;;;5104704;28;20101;-76
2022/03/05 05:54:10;;;;;;;3.15;1.60;;;;;;;;;;5105676;28;20027;-76
2022/03/05 05:56:35;;;;;;;1.65;0.93;;;;;;;;;;5104710;28;20040;-75
2022/03/05 05:59:01;;;;;;;2.75;1.00;;;;;;;;;;5105285;28;20402;-76
2022/03/05 06:01:26;;;;;;;3.25;0.80;;;;;;;;;;5105573;28;20044;-76
2022/03/05 06:03:53;;;;;;;1.20;0.52;;;;;;;;;;5105311;28;20036;-76
2022/03/05 06:06:20;;;;;;;1.17;0.40;;;;;;;;;;5105674;28;20028;-77
2022/03/05 06:08:45;;;;;;;2.05;0.75;;;;;;;;;;5105775;28;20031;-76
2022/03/05 06:11:11;;;;;;;4.00;0.55;;;;;;;;;;5105452;28;20028;-76
2022/03/05 06:13:36;;;;;;;2.05;0.70;;;;;;;;;;5105442;28;20024;-77
2022/03/05 06:16:02;;;;;;;0.93;0.63;;;;;;;;;;5105501;28;20027;-76
2022/03/05 06:18:27;;;;;;;1.02;0.60;;;;;;;;;;5103857;28;20028;-76
2022/03/05 06:20:53;;;;;;;2.80;0.77;;;;;;;;;;5104073;28;20028;-76
2022/03/05 06:23:18;;;;;;;0.85;0.50;;;;;;;;;;5103765;28;20231;-76
2022/03/05 06:25:44;;;;;;;0.93;0.60;;;;;;;;;;5105310;28;20450;-76
2022/03/05 06:28:09;;;;;;;0.63;0.50;;;;;;;;;;5105133;28;20028;-77
2022/03/05 06:30:35;;;;;;;0.45;0.40;;;;;;;;;;5103815;28;20046;-77
2022/03/05 06:33:00;;;;;;;2.33;0.63;;;;;;;;;;5104782;28;20039;-76
2022/03/05 06:35:26;;;;;;;0.50;0.32;;;;;;;;;;5103793;28;20024;-76
2022/03/05 06:37:51;;;;;;;1.85;0.40;;;;;;;;;;5104769;28;20040;-76
2022/03/05 06:40:17;;;;;;;2.60;0.50;;;;;;;;;;5104829;28;20024;-77
2022/03/05 06:42:44;;;;;;;1.65;0.60;;;;;;;;;;5103616;28;20040;-77
2022/03/05 06:45:10;;;;;;;0.30;0.30;;;;;;;;;;5104578;28;20020;-76
2022/03/05 06:47:36;;;;;;;2.40;0.50;;;;;;;;;;5104763;28;20091;-77
2022/03/05 06:50:02;;;;;;;2.20;0.40;;;;;;;;;;5104768;28;20020;-76
2022/03/05 06:52:27;;;;;;;0.60;0.40;;;;;;;;;;5104606;28;20032;-76
2022/03/05 06:54:53;;;;;;;0.75;0.50;;;;;;;;;;5104750;28;20028;-75
2022/03/05 06:57:19;;;;;;;1.23;0.60;;;;;;;;;;5104568;28;20020;-76
2022/03/05 06:59:44;;;;;;;1.73;0.50;;;;;;;;;;5102932;28;20058;-76
2022/03/05 07:02:09;;;;;;;1.00;0.60;;;;;;;;;;5104070;28;20060;-76
2022/03/05 07:04:35;;;;;;;5.07;0.80;;;;;;;;;;5103031;28;20050;-76
2022/03/05 07:07:00;;;;;;;1.77;0.40;;;;;;;;;;5104700;28;20032;-75
2022/03/05 07:09:25;;;;;;;0.45;0.38;;;;;;;;;;5102709;28;20055;-76
2022/03/05 07:11:51;;;;;;;0.85;0.50;;;;;;;;;;5104456;28;20032;-76
2022/03/05 07:14:16;;;;;;;0.52;0.40;;;;;;;;;;5103593;28;20036;-76
2022/03/05 07:16:42;;;;;;;0.20;0.20;;;;;;;;;;5103424;28;20024;-75
2022/03/05 07:19:07;;;;;;;0.88;0.25;;;;;;;;;;5104316;28;20088;-75
2022/03/05 07:21:33;;;;;;;0.30;0.20;;;;;;;;;;5102638;28;20028;-76
2022/03/05 07:23:58;;;;;;;0.38;0.30;;;;;;;;;;5104126;28;20389;-75
2022/03/05 07:26:24;;;;;;;1.27;0.43;;;;;;;;;;5104064;28;20040;-76
2022/03/05 07:28:50;;;;;;;0.63;0.30;;;;;;;;;;5103826;28;20028;-76
2022/03/05 07:31:15;;;;;;;1.85;0.60;;;;;;;;;;5102505;28;20028;-75
2022/03/05 07:33:41;;;;;;;1.13;0.47;;;;;;;;;;5103655;28;20059;-75
2022/03/05 07:36:06;;;;;;;1.58;0.43;;;;;;;;;;5102524;28;20081;-76
2022/03/05 07:38:32;;;;;;;2.05;0.52;;;;;;;;;;5103784;28;20024;-75
2022/03/05 07:40:58;;;;;;;0.55;0.35;;;;;;;;;;5103930;28;20027;-76
2022/03/05 07:43:23;;;;;;;0.50;0.50;;;;;;;;;;5103645;28;20016;-75
2022/03/05 07:45:49;;;;;;;0.38;0.32;;;;;;;;;;5103908;28;20028;-75
2022/03/05 07:48:15;;;;;;;2.63;0.70;;;;;;;;;;5103618;28;20028;-75
2022/03/05 07:50:41;;;;;;;0.68;0.30;;;;;;;;;;5103778;28;20042;-75
2022/03/05 07:53:07;;;;;;;0.90;0.50;;;;;;;;;;5103464;28;20039;-75
2022/03/05 07:55:35;;;;;;;3.15;0.40;;;;;;;;;;5102148;28;20028;-76
2022/03/05 07:58:01;;;;;;;0.30;0.30;;;;;;;;;;5103617;28;20371;-75
2022/03/05 08:00:26;;;;;;;1.05;0.30;;;;;;;;;;5102173;28;20106;-75
2022/03/05 08:02:52;;;;;;;0.90;0.50;;;;;;;;;;5103462;28;20020;-75
2022/03/05 08:05:17;;;;;;;3.85;0.80;;;;;;;;;;5102147;28;20024;-75
2022/03/05 08:07:43;;;;;;;1.60;0.68;;;;;;;;;;5103315;28;20024;-75
2022/03/05 08:10:08;;;;;;;2.13;0.85;;;;;;;;;;5103359;28;20040;-74
2022/03/05 08:12:35;;;;;;;1.92;0.90;;;;;;;;;;5102167;28;20103;-75
2022/03/05 08:15:01;;;;;;;4.63;1.35;;;;;;;;;;5103137;28;20093;-75
2022/03/05 08:17:26;;;;;;;2.63;1.35;;;;;;;;;;5100681;28;20027;-75
2022/03/05 08:19:52;;;;;;;3.88;1.83;;;;;;;;;;5101615;28;20068;-74
2022/03/05 08:22:17;;;;;;;2.47;1.20;;;;;;;;;;5101577;28;20043;-75
2022/03/05 08:24:42;;;;;;;1.35;0.80;;;;;;;;;;5101626;28;20016;-75
2022/03/05 08:27:08;;;;;;;1.30;0.80;;;;;;;;;;5101087;28;20390;-74
2022/03/05 08:29:33;;;;;;;3.60;0.80;;;;;;;;;;5101544;28;20020;-74
2022/03/05 08:31:58;;;;;;;1.35;0.80;;;;;;;;;;5101362;28;20029;-73
2022/03/05 08:34:24;;;;;;;1.00;0.70;;;;;;;;;;5102717;28;20028;-75
2022/03/05 08:36:49;;;;;;;2.10;0.73;;;;;;;;;;5103262;28;20078;-75
2022/03/05 08:39:15;;;;;;;1.10;0.38;;;;;;;;;;5101547;28;20401;-75
2022/03/05 08:41:40;;;;;;;2.85;0.70;;;;;;;;;;5102753;28;20377;-75
2022/03/05 08:44:06;;;;;;;1.63;0.47;;;;;;;;;;5101575;28;20020;-75
2022/03/05 08:46:31;;;;;;;1.48;0.90;;;;;;;;;;5101672;28;20528;-76
2022/03/05 08:48:57;;;;;;;1.40;0.65;;;;;;;;;;5102975;28;20032;-74
2022/03/05 08:51:22;;;;;;;2.50;0.90;;;;;;;;;;5102416;28;20038;-76
2022/03/05 08:53:50;;;;;;;3.78;1.00;;;;;;;;;;5102526;28;20529;-75
2022/03/05 08:56:16;;;;;;;1.73;0.90;;;;;;;;;;5101621;28;20028;-74
2022/03/05 08:58:41;;;;;;;0.90;0.60;;;;;;;;;;5101559;28;20050;-74
2022/03/05 09:01:07;;;;;;;2.50;1.20;;;;;;;;;;5101628;28;20032;-75
2022/03/05 09:03:34;;;;;;;2.30;1.40;;;;;;;;;;5101066;28;20459;-75
2022/03/05 09:06:00;;;;;;;2.38;1.02;;;;;;;;;;5102677;28;20028;-75
2022/03/05 09:08:25;;;;;;;2.88;1.50;;;;;;;;;;5102798;28;20036;-74
2022/03/05 09:10:55;;;;;;;2.00;0.82;;;;;;;;;;5102883;28;20080;-75
2022/03/05 09:13:20;;;;;;;2.58;0.88;;;;;;;;;;5102661;28;20029;-74
2022/03/05 09:15:52;;;;;;;8.70;3.30;;;;;;;;;;5103065;28;20078;-75
2022/03/05 09:18:18;;;;;;;5.95;3.05;;;;;;;;;;5103040;28;20047;-75
2022/03/05 09:20:46;;;;;;;4.57;2.20;;;;;;;;;;5102726;28;20028;-74
2022/03/05 09:23:12;;;;;;;1.52;0.80;;;;;;;;;;5101035;28;20141;-74
2022/03/05 09:25:40;;;;;;;1.20;0.70;;;;;;;;;;5102291;28;20032;-75
2022/03/05 09:28:06;;;;;;;1.75;0.77;;;;;;;;;;5102319;28;20032;-75
2022/03/05 09:30:35;;;;;;;1.00;0.30;;;;;;;;;;5101039;28;20091;-76
2022/03/05 09:33:00;;;;;;;1.17;0.30;;;;;;;;;;5103684;28;20074;-74
2022/03/05 09:35:29;;;;;;;0.55;0.40;;;;;;;;;;5105853;28;20039;-74
2022/03/05 09:37:54;;;;;;;0.80;0.32;;;;;;;;;;5106042;28;20024;-75
2022/03/05 09:40:20;;;;;;;1.55;0.30;;;;;;;;;;5106018;28;20449;-74
2022/03/05 09:42:46;;;;;;;0.65;0.40;;;;;;;;;;5106340;28;20059;-74
2022/03/05 09:45:17;;;;;;;1.48;0.47;;;;;;;;;;5105934;28;20400;-74
2022/03/05 09:47:44;;;;;;;0.35;0.30;;;;;;;;;;5105027;28;20393;-74
2022/03/05 09:50:10;;;;;;;0.20;0.20;;;;;;;;;;5104770;28;20027;-73
2022/03/05 09:52:36;;;;;;;0.32;0.20;;;;;;;;;;5105789;28;20024;-73
2022/03/05 09:55:03;;;;;;;1.27;0.20;;;;;;;;;;5106151;28;20051;-74
2022/03/05 09:57:28;;;;;;;2.42;0.50;;;;;;;;;;5105768;28;20441;-74
2022/03/05 09:59:54;;;;;;;0.68;0.40;;;;;;;;;;5105875;28;20059;-74
2022/03/05 10:02:19;;;;;;;1.55;0.65;;;;;;;;;;5105590;28;20032;-74
2022/03/05 10:04:45;;;;;;;0.75;0.60;;;;;;;;;;5105428;28;20043;-75
2022/03/05 10:07:16;;;;;;;2.60;0.60;;;;;;;;;;5105753;28;20099;-75
2022/03/05 10:09:44;;;;;;;1.13;0.50;;;;;;;;;;5105645;28;20059;-74
2022/03/05 10:12:31;;;;;;;0.95;0.63;;;;;;;;;;5105609;28;20070;-74
2022/03/05 10:15:17;;;;;;;2.63;0.50;;;;;;;;;;5105828;28;20085;-75
2022/03/05 10:17:45;;;;;;;2.42;0.80;;;;;;;;;;5105553;28;20032;-73
2022/03/05 10:20:11;;;;;;;0.85;0.47;;;;;;;;;;5105384;28;20028;-75
2022/03/05 10:22:36;;;;;;;15.07;1.00;;;;;;;;;;5105630;28;20111;-76
2022/03/05 10:25:02;;;;;;;1.85;0.57;;;;;;;;;;5105323;28;20217;-74
2022/03/05 10:27:30;;;;;;;1.20;0.25;;;;;;;;;;5103908;28;20044;-75
2022/03/05 10:29:55;;;;;;;0.55;0.40;;;;;;;;;;5104857;28;20024;-74
2022/03/05 10:32:27;;;;;;;0.80;0.50;;;;;;;;;;5105443;28;20082;-75
2022/03/05 10:34:54;;;;;;;1.48;0.47;;;;;;;;;;5105125;28;20027;-74
2022/03/05 10:37:21;;;;;;;0.70;0.30;;;;;;;;;;5105555;28;20028;-75
2022/03/05 10:39:48;;;;;;;0.45;0.40;;;;;;;;;;5104592;28;20107;-75
2022/03/05 10:42:24;;;;;;;1.30;0.50;;;;;;;;;;5103068;28;20028;-75
2022/03/05 10:45:01;;;;;;;0.90;0.47;;;;;;;;;;5103853;28;20028;-75
2022/03/05 10:47:40;;;;;;;1.02;0.57;;;;;;;;;;5104884;28;20032;-73
2022/03/05 10:50:30;;;;;;;0.98;0.30;;;;;;;;;;5104423;28;20032;-74
2022/03/05 10:53:01;;;;;;;2.95;0.40;;;;;;;;;;5098831;28;20111;-74
2022/03/05 10:55:35;;;;;;;2.17;0.35;;;;;;;;;;5103029;28;20101;-74
2022/03/05 10:58:13;;;;;;;0.63;0.28;;;;;;;;;;5104517;28;20123;-75
2022/03/05 11:00:40;;;;;;;1.15;0.40;;;;;;;;;;5104707;28;20063;-75
2022/03/05 11:03:05;;;;;;;1.05;0.40;;;;;;;;;;5104316;28;20078;-74
2022/03/05 11:05:36;;;;;;;3.05;0.60;;;;;;;;;;5104572;28;20031;-74
2022/03/05 11:08:02;;;;;;;0.55;0.32;;;;;;;;;;5104378;28;20478;-74
2022/03/05 11:10:29;;;;;;;1.10;0.45;;;;;;;;;;5104452;28;20020;-75
2022/03/05 11:13:00;;;;;;;0.55;0.40;;;;;;;;;;5103302;28;20032;-74
2022/03/05 11:15:27;;;;;;;0.75;0.40;;;;;;;;;;5104070;28;20028;-74
2022/03/05 11:17:53;;;;;;;2.17;0.30;;;;;;;;;;5104544;28;20223;-74
2022/03/05 11:20:19;;;;;;;0.43;0.30;;;;;;;;;;5103912;28;20024;-74
2022/03/05 11:22:49;;;;;;;0.90;0.32;;;;;;;;;;5104432;28;20135;-73
2022/03/05 11:25:17;;;;;;;2.20;0.40;;;;;;;;;;5102595;28;20064;-74
2022/03/05 11:28:00;;;;;;;1.70;0.88;;;;;;;;;;5103465;28;20098;-74
2022/03/05 11:30:28;;;;;;;1.77;0.30;;;;;;;;;;5104194;28;20462;-74
2022/03/05 11:32:54;;;;;;;0.50;0.38;;;;;;;;;;5103957;28;20032;-74
2022/03/05 11:35:22;;;;;;;1.02;0.40;;;;;;;;;;5102788;28;20050;-73
2022/03/05 11:37:50;;;;;;;0.75;0.35;;;;;;;;;;5104143;28;20489;-73
2022/03/05 11:40:42;;;;;;;1.75;0.60;;;;;;;;;;5102572;28;20032;-74
2022/03/05 11:43:26;;;;;;;2.45;0.68;;;;;;;;;;5103840;28;20036;-74
2022/03/05 11:46:00;;;;;;;;;;;;;;;;;;5104463;28;20039;-75
2022/03/05 11:48:31;;;;;;;0.77;0.40;;;;;;;;;;5103830;28;19975;-74
2022/03/05 11:51:16;;;;;;;1.00;0.50;;;;;;;;;;5103904;28;20042;-74
2022/03/05 11:53:42;;;;;;;1.23;0.50;;;;;;;;;;5103578;28;20020;-74
2022/03/05 11:56:26;;;;;;;2.33;0.50;;;;;;;;;;5103139;28;20035;-74
2022/03/05 11:58:52;;;;;;;0.73;0.35;;;;;;;;;;5102220;28;20028;-74
2022/03/05 12:01:37;;;;;;;1.52;0.68;;;;;;;;;;5103616;28;20032;-73
2022/03/05 12:04:22;;;;;;;0.40;0.40;;;;;;;;;;5103307;28;20050;-74
2022/03/05 12:06:51;;;;;;;1.00;0.35;;;;;;;;;;5103451;28;20031;-73
2022/03/05 12:09:37;;;;;;;3.47;0.52;;;;;;;;;;5101954;28;20509;-74
2022/03/05 12:12:05;;;;;;;1.10;0.40;;;;;;;;;;5103410;28;20499;-74
2022/03/05 12:14:55;;;;;;;1.33;0.38;;;;;;;;;;5102071;28;20093;-73
2022/03/05 12:17:25;;;;;;;3.42;0.50;;;;;;;;;;5102247;28;20027;-73
2022/03/05 12:19:51;;;;;;;2.10;0.30;;;;;;;;;;5103112;28;20127;-74
2022/03/05 12:22:17;;;;;;;1.05;0.30;;;;;;;;;;5103368;28;20024;-74
2022/03/05 12:24:43;;;;;;;0.40;0.20;;;;;;;;;;5103265;28;20093;-74
2022/03/05 12:27:14;;;;;;;0.47;0.30;;;;;;;;;;5103268;28;20127;-74
2022/03/05 12:29:51;;;;;;;2.38;0.40;;;;;;;;;;5102947;28;20028;-74
2022/03/05 12:32:18;;;;;;;0.75;0.40;;;;;;;;;;5102810;28;20094;-74
2022/03/05 12:34:43;;;;;;;1.20;0.40;;;;;;;;;;5101477;28;20510;-74
2022/03/05 12:37:09;;;;;;;0.38;0.38;;;;;;;;;;5101475;28;20035;-74
2022/03/05 12:39:41;;;;;;;0.70;0.52;;;;;;;;;;5102802;28;20024;-74
2022/03/05 12:42:07;;;;;;;0.28;0.20;;;;;;;;;;5101122;28;20024;-74
2022/03/05 12:44:37;;;;;;;0.28;0.22;;;;;;;;;;5101942;28;20032;-73
2022/03/05 12:47:03;;;;;;;0.70;0.40;;;;;;;;;;5100521;28;20035;-73
2022/03/05 12:49:29;;;;;;;1.42;0.47;;;;;;;;;;5102936;28;20036;-73
2022/03/05 12:51:54;;;;;;;0.77;0.30;;;;;;;;;;5101635;28;20059;-75
2022/03/05 12:54:21;;;;;;;14.35;12.80;;;;;;;;;;5101456;28;20085;-73
2022/03/05 12:56:46;;;;;;;2.83;0.40;;;;;;;;;;5102850;28;20047;-74
2022/03/05 12:59:14;;;;;;;1.45;0.40;;;;;;;;;;5102730;28;20498;-73
2022/03/05 13:01:39;;;;;;;5.15;1.25;;;;;;;;;;5101164;28;20024;-72
2022/03/05 13:04:05;;;;;;;3.28;1.42;;;;;;;;;;5102859;28;20038;-73
2022/03/05 13:06:30;;;;;;;1.40;0.40;;;;;;;;;;5102511;28;20032;-73
2022/03/05 13:08:56;;;;;;;20.20;12.55;;;;;;;;;;5106708;28;20020;-72
2022/03/05 13:11:27;;;;;;;1.05;0.30;;;;;;;;;;5106757;28;20428;-73
2022/03/05 13:13:58;;;;;;;2.10;1.08;;;;;;;;;;5105190;28;20043;-73
2022/03/05 13:16:27;;;;;;;1.55;0.35;;;;;;;;;;5106950;28;20078;-74
2022/03/05 13:18:57;;;;;;;1.67;0.73;;;;;;;;;;5106610;28;20063;-74
2022/03/05 13:21:22;;;;;;;0.30;0.30;;;;;;;;;;5105370;28;20100;-74
2022/03/05 13:23:48;;;;;;;0.45;0.30;;;;;;;;;;5106367;28;20044;-74
2022/03/05 13:26:14;;;;;;;0.68;0.40;;;;;;;;;;5106229;28;20040;-74
2022/03/05 13:28:39;;;;;;;0.85;0.55;;;;;;;;;;5106405;28;20063;-74
2022/03/05 13:31:07;;;;;;;3.90;0.73;;;;;;;;;;5106395;28;20019;-73
2022/03/05 13:33:48;;;;;;;1.98;0.35;;;;;;;;;;5105288;28;20386;-74
2022/03/05 13:36:22;;;;;;;0.63;0.43;;;;;;;;;;5106563;28;20032;-74
2022/03/05 13:38:47;;;;;;;;;;;;;;;;;;5105320;28;20039;-74
2022/03/05 13:41:23;;;;;;;3.33;0.50;;;;;;;;;;5106453;28;19912;-74
2022/03/05 13:43:49;;;;;;;0.68;0.40;;;;;;;;;;5106098;28;20062;-74
2022/03/05 13:46:18;;;;;;;0.20;0.20;;;;;;;;;;5106408;28;20035;-74
2022/03/05 13:49:04;;;;;;;0.43;0.40;;;;;;;;;;5105806;28;20039;-74
2022/03/05 13:51:34;;;;;;;2.50;0.55;;;;;;;;;;5106106;28;20484;-74
2022/03/05 13:54:00;;;;;;;0.30;0.30;;;;;;;;;;5105977;28;20043;-75
2022/03/05 13:56:26;;;;;;;0.70;0.30;;;;;;;;;;5104723;28;20127;-74
2022/03/05 13:58:57;;;;;;;4.47;2.65;;;;;;;;;;5105931;28;20036;-74
2022/03/05 14:01:30;;;;;;;0.55;0.20;;;;;;;;;;5106161;28;20127;-75
2022/03/05 14:04:21;;;;;;;1.60;0.60;;;;;;;;;;5105610;28;20043;-74
2022/03/05 14:06:56;;;;;;;1.33;0.40;;;;;;;;;;5105861;28;20482;-73
2022/03/05 14:09:29;;;;;;;2.22;0.20;;;;;;;;;;5105645;28;20024;-73
2022/03/05 14:12:06;;;;;;;1.15;0.35;;;;;;;;;;5106015;28;20020;-73
2022/03/05 14:14:41;;;;;;;3.85;0.40;;;;;;;;;;5105716;28;20032;-73
2022/03/05 14:17:08;;;;;;;0.35;0.30;;;;;;;;;;5104585;28;20051;-73
2022/03/05 14:19:33;;;;;;;0.30;0.30;;;;;;;;;;5104548;28;20024;-73
2022/03/05 14:22:12;;;;;;;0.70;0.30;;;;;;;;;;5105665;28;20038;-73
2022/03/05 14:24:43;;;;;;;1.45;0.28;;;;;;;;;;5105328;28;20034;-73
2022/03/05 14:27:13;;;;;;;0.47;0.20;;;;;;;;;;5105498;28;20055;-73
2022/03/05 14:29:39;;;;;;;2.00;0.32;;;;;;;;;;5104128;28;20039;-73
2022/03/05 14:32:06;;;;;;;0.98;0.35;;;;;;;;;;5105438;28;20189;-73
2022/03/05 14:34:32;;;;;;;0.20;0.20;;;;;;;;;;5103918;28;20062;-73
2022/03/05 14:36:57;;;;;;;1.13;0.40;;;;;;;;;;5103977;28;20462;-73
2022/03/05 14:39:23;;;;;;;1.70;0.32;;;;;;;;;;5104943;28;20399;-72
2022/03/05 14:41:48;;;;;;;0.73;0.30;;;;;;;;;;5105405;28;20024;-73
2022/03/05 14:44:14;;;;;;;0.77;0.30;;;;;;;;;;5104928;28;20040;-73
2022/03/05 14:46:40;;;;;;;0.50;0.20;;;;;;;;;;5105168;28;20028;-72